createdAt,value
2022-12-31T00:00:05.236Z,96000.28
2022-12-31T00:02:31.877Z,96010.22
2022-12-31T00:04:58.355Z,96012.88
2022-12-31T00:07:25.134Z,96017.94
2022-12-31T00:09:51.469Z,96006.09
2022-12-31T00:12:17.810Z,96024.88
2022-12-31T00:14:44.608Z,96017.13
2022-12-31T00:17:10.986Z,96020.81
2022-12-31T00:19:37.407Z,96020.41
2022-12-31T00:22:04.265Z,96019.78
2022-12-31T00:24:31.086Z,96026.47
2022-12-31T00:26:57.572Z,96014.84
2022-12-31T00:29:24.545Z,96014.63
2022-12-31T00:31:50.887Z,96035.19
2022-12-31T00:34:17.248Z,96041.91
2022-12-31T00:36:46.227Z,96034.53
2022-12-31T00:39:13.158Z,96025.13
2022-12-31T00:41:40.112Z,96038.63
2022-12-31T00:44:06.565Z,96048.38
2022-12-31T00:46:33.089Z,96061.84
2022-12-31T00:49:00.087Z,96062.22
2022-12-31T00:51:27.496Z,96059.53
2022-12-31T00:53:55.561Z,96067.47
2022-12-31T00:56:26.037Z,96072.38
2022-12-31T00:58:52.708Z,96082.16
2022-12-31T01:01:20.759Z,96086.81
2022-12-31T01:03:49.400Z,96083.34
2022-12-31T01:06:17.023Z,96078.03
2022-12-31T01:08:43.871Z,96093.50
2022-12-31T01:11:24.583Z,96096.16
2022-12-31T01:13:54.442Z,96097.22
2022-12-31T01:16:27.031Z,96088.47
2022-12-31T01:18:53.845Z,96075.16
2022-12-31T01:21:20.887Z,96096.16
2022-12-31T01:23:48.084Z,96098.78
2022-12-31T01:26:16.609Z,96078.41
2022-12-31T01:28:42.961Z,96093.13
2022-12-31T01:31:15.668Z,96087.75
2022-12-31T01:33:42.899Z,96089.63
2022-12-31T01:36:25.028Z,96090.25
2022-12-31T01:38:53.096Z,96086.03
2022-12-31T01:41:23.594Z,96095.44
2022-12-31T01:43:57.355Z,96106.50
2022-12-31T01:46:27.191Z,96105.09
2022-12-31T01:48:57.945Z,96110.84
2022-12-31T01:51:27.820Z,96114.50
2022-12-31T01:53:54.633Z,96108.75
2022-12-31T01:56:22.746Z,96112.22
2022-12-31T01:58:52.399Z,96109.81
2022-12-31T02:01:26.370Z,96109.81
2022-12-31T02:03:54.180Z,96126.97
2022-12-31T02:06:23.965Z,96119.63
2022-12-31T02:08:51.398Z,96126.13
2022-12-31T02:11:30.624Z,96124.72
2022-12-31T02:14:03.725Z,96137.78
2022-12-31T02:16:47.513Z,96136.16
2022-12-31T02:19:51.669Z,96135.31
2022-12-31T02:22:40.112Z,96137.34
2022-12-31T02:25:40.701Z,96125.72
2022-12-31T02:28:25.369Z,96136.31
2022-12-31T02:31:00.931Z,96143.25
2022-12-31T02:33:36.846Z,96137.34
2022-12-31T02:36:10.703Z,96128.16
2022-12-31T02:38:42.011Z,96140.59
2022-12-31T02:41:36.342Z,96141.84
2022-12-31T02:44:21.089Z,96132.28
2022-12-31T02:47:00.989Z,96127.97
2022-12-31T02:49:45.790Z,96139.00
2022-12-31T02:52:33.663Z,96128.81
2022-12-31T02:55:18.092Z,96142.69
2022-12-31T02:58:43.520Z,96154.72
2022-12-31T03:01:29.223Z,96140.66
2022-12-31T03:04:15.704Z,96145.97
2022-12-31T03:06:43.133Z,96143.50
2022-12-31T03:09:15.176Z,96155.53
2022-12-31T03:12:00.668Z,96159.41
2022-12-31T03:14:27.036Z,96156.53
2022-12-31T03:16:53.476Z,96159.34
2022-12-31T03:19:38.869Z,96172.44
2022-12-31T03:22:23.592Z,96161.00
2022-12-31T03:25:08.712Z,96156.09
2022-12-31T03:27:35.035Z,96151.59
2022-12-31T03:30:01.448Z,96168.72
2022-12-31T03:32:28.168Z,96180.78
2022-12-31T03:34:55.786Z,96175.25
2022-12-31T03:37:22.124Z,96185.06
2022-12-31T03:39:48.672Z,96193.41
2022-12-31T03:42:15.035Z,96174.63
2022-12-31T03:44:41.355Z,96183.22
2022-12-31T03:47:08.218Z,96168.31
2022-12-31T03:49:34.546Z,96175.25
2022-12-31T03:52:02.911Z,96166.25
2022-12-31T03:54:29.828Z,96162.16
2022-12-31T03:57:00.100Z,96171.13
2022-12-31T03:59:26.846Z,96170.09
2022-12-31T04:01:53.573Z,96175.38
2022-12-31T04:04:20.114Z,96189.28
2022-12-31T04:06:46.909Z,96188.31
2022-12-31T04:09:13.318Z,96188.31
2022-12-31T04:11:39.657Z,96187.53
2022-12-31T04:14:06.433Z,96185.28
2022-12-31T04:16:32.997Z,96189.16
2022-12-31T04:18:59.768Z,96200.78
2022-12-31T04:21:31.468Z,96204.66
2022-12-31T04:24:02.100Z,96207.91
2022-12-31T04:26:29.241Z,96214.84
2022-12-31T04:28:55.692Z,96219.31
2022-12-31T04:31:22.682Z,96224.25
2022-12-31T04:33:49.034Z,96220.16
2022-12-31T04:36:15.418Z,96224.63
2022-12-31T04:38:42.301Z,96234.84
2022-12-31T04:41:17.599Z,96223.81
2022-12-31T04:43:48.088Z,96234.41
2022-12-31T04:46:14.899Z,96230.34
2022-12-31T04:48:41.735Z,96227.91
2022-12-31T04:51:08.675Z,96221.38
2022-12-31T04:53:35.087Z,96227.91
2022-12-31T04:56:01.607Z,96227.28
2022-12-31T04:58:28.611Z,96228.91
2022-12-31T05:00:56.230Z,96221.78
2022-12-31T05:03:24.882Z,96224.03
2022-12-31T05:05:51.821Z,96229.31
2022-12-31T05:08:18.868Z,96227.88
2022-12-31T05:10:48.036Z,96239.31
2022-12-31T05:13:15.392Z,96248.47
2022-12-31T05:15:42.745Z,96245.00
2022-12-31T05:18:09.252Z,96259.25
2022-12-31T05:20:36.125Z,96244.78
2022-12-31T05:23:02.516Z,96249.28
2022-12-31T05:25:28.946Z,96245.81
2022-12-31T05:27:55.670Z,96247.44
2022-12-31T05:30:23.707Z,96244.22
2022-12-31T05:32:50.102Z,96245.81
2022-12-31T05:35:16.987Z,96245.81
2022-12-31T05:37:43.936Z,96247.03
2022-12-31T05:40:11.133Z,96232.56
2022-12-31T05:42:38.156Z,96245.59
2022-12-31T05:45:05.589Z,96252.53
2022-12-31T05:47:32.288Z,96248.63
2022-12-31T05:49:59.119Z,96239.88
2022-12-31T05:52:25.459Z,96242.97
2022-12-31T05:54:51.809Z,96252.31
2022-12-31T05:57:18.406Z,96236.44
2022-12-31T05:59:44.754Z,96230.31
2022-12-31T06:02:11.108Z,96239.91
2022-12-31T06:04:37.893Z,96236.88
2022-12-31T06:07:04.192Z,96240.13
2022-12-31T06:09:30.549Z,96239.31
2022-12-31T06:11:57.460Z,96253.78
2022-12-31T06:14:23.882Z,96260.91
2022-12-31T06:16:50.194Z,96272.16
2022-12-31T06:19:16.955Z,96272.38
2022-12-31T06:21:43.316Z,96271.53
2022-12-31T06:24:09.628Z,96273.59
2022-12-31T06:26:37.252Z,96276.63
2022-12-31T06:29:05.048Z,96272.53
2022-12-31T06:31:31.500Z,96278.88
2022-12-31T06:33:58.225Z,96285.19
2022-12-31T06:36:24.776Z,96283.56
2022-12-31T06:38:51.340Z,96279.28
2022-12-31T06:41:18.911Z,96287.84
2022-12-31T06:43:45.558Z,96290.09
2022-12-31T06:46:14.704Z,96302.34
2022-12-31T06:48:43.408Z,96297.03
2022-12-31T06:51:17.456Z,96299.69
2022-12-31T06:53:46.088Z,96309.06
2022-12-31T06:56:31.360Z,96315.38
2022-12-31T06:59:01.244Z,96314.34
2022-12-31T07:01:36.383Z,96318.44
2022-12-31T07:04:21.707Z,96319.03
2022-12-31T07:06:59.762Z,96329.63
2022-12-31T07:10:05.381Z,96315.16
2022-12-31T07:12:50.383Z,96319.41
2022-12-31T07:15:36.841Z,96314.31
2022-12-31T07:18:07.530Z,96325.28
2022-12-31T07:20:34.256Z,96328.09
2022-12-31T07:23:01.148Z,96336.84
2022-12-31T07:25:27.908Z,96333.16
2022-12-31T07:28:14.659Z,96328.66
2022-12-31T07:31:00.462Z,96335.63
2022-12-31T07:33:57.045Z,96327.28
2022-12-31T07:36:42.824Z,96332.41
2022-12-31T07:39:12.065Z,96339.16
2022-12-31T07:41:54.364Z,96335.69
2022-12-31T07:44:32.913Z,96325.31
2022-12-31T07:47:01.818Z,96314.72
2022-12-31T07:49:30.461Z,96332.28
2022-12-31T07:51:57.800Z,96333.72
2022-12-31T07:54:24.272Z,96345.16
2022-12-31T07:56:51.634Z,96340.84
2022-12-31T07:59:30.528Z,96346.59
2022-12-31T08:02:06.574Z,96352.28
2022-12-31T08:04:36.229Z,96355.94
2022-12-31T08:07:34.140Z,96361.25
2022-12-31T08:10:17.784Z,96356.59
2022-12-31T08:12:47.092Z,96361.28
2022-12-31T08:15:16.293Z,96365.78
2022-12-31T08:17:43.175Z,96368.63
2022-12-31T08:20:15.040Z,96374.56
2022-12-31T08:22:56.454Z,96382.91
2022-12-31T08:25:30.536Z,96382.91
2022-12-31T08:28:28.422Z,96387.41
2022-12-31T08:31:02.001Z,96378.84
2022-12-31T08:34:06.247Z,96376.22
2022-12-31T08:36:57.351Z,96369.03
2022-12-31T08:39:38.424Z,96368.44
2022-12-31T08:42:23.790Z,96368.66
2022-12-31T08:45:03.134Z,96374.78
2022-12-31T08:47:46.412Z,96380.47
2022-12-31T08:50:18.128Z,96378.47
2022-12-31T08:52:45.328Z,96382.53
2022-12-31T08:55:17.414Z,96398.25
2022-12-31T08:58:05.170Z,96402.53
2022-12-31T09:00:33.599Z,96413.56
2022-12-31T09:03:18.470Z,96414.78
2022-12-31T09:06:11.315Z,96419.47
2022-12-31T09:09:06.208Z,96412.09
2022-12-31T09:12:04.724Z,96406.22
2022-12-31T09:14:49.362Z,96410.25
2022-12-31T09:17:45.587Z,96408.06
2022-12-31T09:20:36.365Z,96410.50
2022-12-31T09:23:09.064Z,96410.69
2022-12-31T09:25:42.182Z,96417.25
2022-12-31T09:28:17.764Z,96420.50
2022-12-31T09:31:08.629Z,96418.44
2022-12-31T09:34:02.603Z,96433.97
2022-12-31T09:36:39.235Z,96430.31
2022-12-31T09:39:33.143Z,96431.72
2022-12-31T09:42:25.251Z,96431.50
2022-12-31T09:45:03.917Z,96439.88
2022-12-31T09:47:52.255Z,96436.38
2022-12-31T09:50:25.289Z,96427.38
2022-12-31T09:52:51.580Z,96424.69
2022-12-31T09:55:48.942Z,96415.41
2022-12-31T09:58:24.683Z,96406.00
2022-12-31T10:01:14.155Z,96412.53
2022-12-31T10:04:09.620Z,96415.31
2022-12-31T10:06:36.201Z,96408.75
2022-12-31T10:09:20.756Z,96413.25
2022-12-31T10:12:19.367Z,96415.06
2022-12-31T10:15:23.318Z,96402.78
2022-12-31T10:18:21.192Z,96408.72
2022-12-31T10:20:50.796Z,96414.63
2022-12-31T10:23:33.037Z,96418.84
2022-12-31T10:26:25.004Z,96412.53
2022-12-31T10:28:59.939Z,96398.91
2022-12-31T10:31:41.341Z,96402.91
2022-12-31T10:34:43.089Z,96394.88
2022-12-31T10:37:13.913Z,96407.34
2022-12-31T10:40:01.010Z,96403.13
2022-12-31T10:43:14.158Z,96407.47
2022-12-31T10:45:49.967Z,96398.44
2022-12-31T10:48:40.681Z,96404.53
2022-12-31T10:51:44.420Z,96398.03
2022-12-31T10:54:32.806Z,96398.03
2022-12-31T10:57:25.448Z,96391.97
2022-12-31T11:00:00.921Z,96395.09
2022-12-31T11:02:48.206Z,96400.34
2022-12-31T11:05:59.096Z,96397.59
2022-12-31T11:09:00.962Z,96390.66
2022-12-31T11:11:51.636Z,96382.66
2022-12-31T11:14:30.485Z,96385.75
2022-12-31T11:17:18.637Z,96370.75
2022-12-31T11:20:10.994Z,96370.50
2022-12-31T11:22:51.143Z,96367.41
2022-12-31T11:25:34.442Z,96354.94
2022-12-31T11:28:22.447Z,96352.00
2022-12-31T11:31:07.816Z,96346.16
2022-12-31T11:33:51.009Z,96349.19
2022-12-31T11:36:32.637Z,96352.00
2022-12-31T11:39:15.474Z,96354.34
2022-12-31T11:42:01.659Z,96359.13
2022-12-31T11:44:55.816Z,96355.34
2022-12-31T11:48:27.950Z,96360.84
2022-12-31T11:50:49.893Z,96355.84
2022-12-31T11:53:57.904Z,96347.41
2022-12-31T11:56:28.304Z,96339.91
2022-12-31T11:58:56.166Z,96340.63
2022-12-31T12:02:10.407Z,96332.25
2022-12-31T12:04:36.751Z,96333.66
2022-12-31T12:07:03.101Z,96326.22
2022-12-31T12:09:32.441Z,96329.94
2022-12-31T12:12:05.077Z,96324.97
2022-12-31T12:14:40.305Z,96322.09
2022-12-31T12:17:09.925Z,96315.81
2022-12-31T12:19:46.280Z,96324.41
2022-12-31T12:22:21.130Z,96321.03
2022-12-31T12:24:56.998Z,96310.94
2022-12-31T12:27:28.650Z,96323.81
2022-12-31T12:29:55.010Z,96313.16
2022-12-31T12:32:27.242Z,96313.72
2022-12-31T12:34:53.781Z,96321.41
2022-12-31T12:37:35.092Z,96318.03
2022-12-31T12:40:05.115Z,96315.25
2022-12-31T12:42:32.042Z,96309.91
2022-12-31T12:45:20.672Z,96315.84
2022-12-31T12:47:51.034Z,96319.47
2022-12-31T12:50:22.043Z,96305.88
2022-12-31T12:53:12.432Z,96306.91
2022-12-31T12:55:45.035Z,96315.72
2022-12-31T12:58:36.477Z,96302.38
2022-12-31T13:01:26.369Z,96314.69
2022-12-31T13:04:33.850Z,96298.19
2022-12-31T13:07:26.241Z,96302.81
2022-12-31T13:10:06.919Z,96303.66
2022-12-31T13:13:22.151Z,96291.69
2022-12-31T13:16:14.249Z,96303.88
2022-12-31T13:19:05.313Z,96289.97
2022-12-31T13:21:41.915Z,96296.56
2022-12-31T13:24:31.385Z,96287.88
2022-12-31T13:27:08.518Z,96289.13
2022-12-31T13:29:36.140Z,96300.16
2022-12-31T13:32:05.602Z,96283.91
2022-12-31T13:34:38.058Z,96287.97
2022-12-31T13:37:27.188Z,96291.75
2022-12-31T13:40:01.881Z,96288.53
2022-12-31T13:42:32.579Z,96285.97
2022-12-31T13:45:25.588Z,96283.72
2022-12-31T13:48:06.966Z,96281.38
2022-12-31T13:50:43.333Z,96277.31
2022-12-31T13:53:27.570Z,96271.16
2022-12-31T13:56:06.240Z,96264.50
2022-12-31T13:58:45.419Z,96270.53
2022-12-31T14:01:32.061Z,96270.19
2022-12-31T14:04:04.636Z,96275.69
2022-12-31T14:06:47.258Z,96272.53
2022-12-31T14:09:21.898Z,96279.34
2022-12-31T14:11:55.146Z,96283.13
2022-12-31T14:14:48.800Z,96285.81
2022-12-31T14:17:39.593Z,96287.81
2022-12-31T14:20:44.524Z,96288.06
2022-12-31T14:23:17.074Z,96295.66
2022-12-31T14:26:27.767Z,96293.59
2022-12-31T14:29:06.716Z,96299.00
2022-12-31T14:31:51.717Z,96299.91
2022-12-31T14:34:47.768Z,96301.38
2022-12-31T14:37:32.840Z,96294.66
2022-12-31T14:40:18.512Z,96290.56
2022-12-31T14:43:00.813Z,96295.91
2022-12-31T14:45:56.070Z,96291.81
2022-12-31T14:48:29.186Z,96290.19
2022-12-31T14:50:59.098Z,96301.13
2022-12-31T14:53:27.345Z,96298.94
2022-12-31T14:56:02.884Z,96306.81
2022-12-31T14:58:42.394Z,96298.31
2022-12-31T15:01:15.466Z,96307.81
2022-12-31T15:03:45.723Z,96308.91
2022-12-31T15:06:12.528Z,96306.72
2022-12-31T15:09:02.455Z,96308.84
2022-12-31T15:11:58.759Z,96308.75
2022-12-31T15:14:38.093Z,96302.75
2022-12-31T15:17:13.955Z,96304.66
2022-12-31T15:19:58.968Z,96313.69
2022-12-31T15:22:34.338Z,96315.56
2022-12-31T15:25:01.578Z,96310.28
2022-12-31T15:27:35.788Z,96310.72
2022-12-31T15:30:04.676Z,96304.44
2022-12-31T15:32:41.330Z,96293.44
2022-12-31T15:35:23.381Z,96299.75
2022-12-31T15:38:16.872Z,96300.56
2022-12-31T15:40:46.264Z,96302.66
2022-12-31T15:43:24.902Z,96309.59
2022-12-31T15:45:54.326Z,96315.56
2022-12-31T15:49:01.990Z,96320.88
2022-12-31T15:51:37.342Z,96320.50
2022-12-31T15:54:05.165Z,96311.31
2022-12-31T15:56:34.653Z,96310.91
2022-12-31T15:59:05.068Z,96315.38
2022-12-31T16:01:36.588Z,96319.47
2022-12-31T16:04:14.964Z,96318.03
2022-12-31T16:06:44.929Z,96327.84
2022-12-31T16:09:22.543Z,96324.56
2022-12-31T16:11:50.005Z,96324.56
2022-12-31T16:14:34.629Z,96324.38
2022-12-31T16:17:01.695Z,96333.16
2022-12-31T16:19:34.951Z,96324.38
2022-12-31T16:22:08.179Z,96330.69
2022-12-31T16:24:49.012Z,96334.56
2022-12-31T16:27:22.838Z,96336.81
2022-12-31T16:29:57.590Z,96334.53
2022-12-31T16:32:23.836Z,96339.38
2022-12-31T16:34:50.199Z,96330.16
2022-12-31T16:37:21.819Z,96336.47
2022-12-31T16:39:56.955Z,96330.16
2022-12-31T16:42:25.161Z,96334.72
2022-12-31T16:44:53.703Z,96330.88
2022-12-31T16:47:27.587Z,96334.13
2022-12-31T16:50:05.308Z,96335.78
2022-12-31T16:52:40.909Z,96332.31
2022-12-31T16:55:10.172Z,96338.81
2022-12-31T16:57:37.153Z,96332.31
2022-12-31T17:00:07.341Z,96328.22
2022-12-31T17:02:39.187Z,96336.78
2022-12-31T17:05:19.387Z,96329.88
2022-12-31T17:07:45.716Z,96324.56
2022-12-31T17:10:19.360Z,96330.69
2022-12-31T17:13:27.391Z,96332.13
2022-12-31T17:15:43.316Z,96335.81
2022-12-31T17:18:20.491Z,96332.53
2022-12-31T17:20:50.160Z,96339.25
2022-12-31T17:23:28.967Z,96335.78
2022-12-31T17:26:09.711Z,96348.03
2022-12-31T17:28:44.865Z,96334.13
2022-12-31T17:31:37.830Z,96330.47
2022-12-31T17:34:12.102Z,96336.00
2022-12-31T17:36:40.624Z,96328.22
2022-12-31T17:39:22.855Z,96334.34
2022-12-31T17:41:51.512Z,96334.75
2022-12-31T17:44:24.224Z,96339.03
2022-12-31T17:46:51.271Z,96333.94
2022-12-31T17:49:21.684Z,96337.97
2022-12-31T17:51:48.420Z,96355.16
2022-12-31T17:54:16.127Z,96352.28
2022-12-31T17:56:44.036Z,96360.03
2022-12-31T17:59:16.566Z,96365.31
2022-12-31T18:01:43.138Z,96360.44
2022-12-31T18:04:14.539Z,96360.00
2022-12-31T18:06:41.838Z,96362.22
2022-12-31T18:09:08.380Z,96359.56
2022-12-31T18:11:36.393Z,96364.44
2022-12-31T18:14:03.766Z,96362.41
2022-12-31T18:16:30.419Z,96355.91
2022-12-31T18:18:59.227Z,96364.91
2022-12-31T18:21:32.834Z,96363.09
2022-12-31T18:26:26.774Z,96367.72
2022-12-31T18:28:53.614Z,96360.75
2022-12-31T18:31:23.227Z,96363.41
2022-12-31T18:33:51.320Z,96366.03
2022-12-31T18:36:19.529Z,96369.31
2022-12-31T18:38:46.214Z,96374.19
2022-12-31T18:41:23.421Z,96379.72
2022-12-31T18:43:50.758Z,96386.50
2022-12-31T18:46:19.973Z,96385.00
2022-12-31T18:48:46.832Z,96393.84
2022-12-31T18:51:18.692Z,96392.28
2022-12-31T18:53:45.575Z,96398.03
2022-12-31T18:56:14.324Z,96399.50
2022-12-31T18:58:41.593Z,96398.66
2022-12-31T19:01:35.302Z,96400.69
2022-12-31T19:04:04.555Z,96406.38
2022-12-31T19:06:31.072Z,96411.28
2022-12-31T19:08:59.169Z,96413.75
2022-12-31T19:11:27.334Z,96417.66
2022-12-31T19:13:53.660Z,96416.63
2022-12-31T19:16:20.510Z,96408.88
2022-12-31T19:18:47.511Z,96410.09
2022-12-31T19:21:18.974Z,96414.53
2022-12-31T19:23:46.136Z,96418.59
2022-12-31T19:26:15.732Z,96413.69
2022-12-31T19:28:42.952Z,96409.63
2022-12-31T19:31:09.670Z,96425.50
2022-12-31T19:33:36.436Z,96421.00
2022-12-31T19:36:03.146Z,96413.19
2022-12-31T19:38:31.980Z,96421.34
2022-12-31T19:40:59.455Z,96417.59
2022-12-31T19:43:25.891Z,96421.72
2022-12-31T19:45:53.146Z,96419.06
2022-12-31T19:48:25.800Z,96421.34
2022-12-31T19:50:56.757Z,96423.72
2022-12-31T19:53:26.329Z,96431.25
2022-12-31T19:55:53.556Z,96434.03
2022-12-31T19:58:22.393Z,96435.03
2022-12-31T20:00:54.804Z,96430.88
2022-12-31T20:03:23.637Z,96427.91
2022-12-31T20:05:50.679Z,96425.88
2022-12-31T20:08:20.125Z,96430.56
2022-12-31T20:10:46.519Z,96420.97
2022-12-31T20:13:13.398Z,96419.28
2022-12-31T20:15:40.311Z,96420.06
2022-12-31T20:18:06.644Z,96417.38
2022-12-31T20:20:33.432Z,96431.59
2022-12-31T20:22:59.860Z,96428.09
2022-12-31T20:25:26.286Z,96423.75
2022-12-31T20:27:54.627Z,96422.66
2022-12-31T20:30:22.835Z,96439.91
2022-12-31T20:32:51.977Z,96449.88
2022-12-31T20:35:19.392Z,96442.16
2022-12-31T20:37:46.032Z,96444.53
2022-12-31T20:40:12.861Z,96442.09
2022-12-31T20:42:40.865Z,96441.59
2022-12-31T20:45:09.175Z,96452.19
2022-12-31T20:47:35.812Z,96443.16
2022-12-31T20:50:17.801Z,96436.53
2022-12-31T20:52:44.856Z,96432.53
2022-12-31T20:55:13.750Z,96436.34
2022-12-31T20:57:40.723Z,96435.88
2022-12-31T21:00:08.359Z,96440.47
2022-12-31T21:02:42.275Z,96437.50
2022-12-31T21:05:10.152Z,96437.81
2022-12-31T21:07:36.588Z,96432.56
2022-12-31T21:10:03.327Z,96439.69
2022-12-31T21:12:55.886Z,96442.97
2022-12-31T21:15:22.276Z,96431.78
2022-12-31T21:17:48.630Z,96424.50
2022-12-31T21:20:15.419Z,96423.91
2022-12-31T21:22:41.802Z,96433.13
2022-12-31T21:25:10.113Z,96427.94
2022-12-31T21:27:36.488Z,96442.06
2022-12-31T21:30:19.807Z,96443.53
2022-12-31T21:32:47.012Z,96449.28
2022-12-31T21:38:05.076Z,96439.88
2022-12-31T21:40:32.034Z,96436.94
2022-12-31T21:42:59.625Z,96441.53
2022-12-31T21:45:26.499Z,96446.81
2022-12-31T21:48:11.180Z,96442.22
2022-12-31T21:50:37.994Z,96434.81
2022-12-31T21:53:04.362Z,96435.53
2022-12-31T21:55:49.712Z,96432.22
2022-12-31T21:58:31.982Z,96440.75
2022-12-31T22:01:18.592Z,96445.00
2022-12-31T22:03:45.338Z,96447.06
2022-12-31T22:06:22.302Z,96439.25
2022-12-31T22:08:55.009Z,96448.69
2022-12-31T22:11:24.230Z,96439.28
2022-12-31T22:13:51.417Z,96446.69
2022-12-31T22:16:20.304Z,96439.66
2022-12-31T22:18:47.997Z,96450.03
2022-12-31T22:21:21.277Z,96440.50
2022-12-31T22:23:50.163Z,96439.84
2022-12-31T22:26:18.923Z,96441.41
2022-12-31T22:28:46.499Z,96447.94
2022-12-31T22:31:15.492Z,96453.81
2022-12-31T22:33:42.394Z,96447.97
2022-12-31T22:36:12.928Z,96450.03
2022-12-31T22:38:39.299Z,96447.13
2022-12-31T22:41:06.925Z,96453.88
2022-12-31T22:43:36.197Z,96458.44
2022-12-31T22:46:26.268Z,96476.63
2022-12-31T22:48:56.892Z,96481.47
2022-12-31T22:51:23.236Z,96480.94
2022-12-31T22:53:49.568Z,96483.75
2022-12-31T22:56:19.060Z,96483.19
2022-12-31T22:58:46.077Z,96475.91
2022-12-31T23:01:19.820Z,96487.78
2022-12-31T23:03:47.276Z,96490.81
2022-12-31T23:06:14.049Z,96490.72
2022-12-31T23:08:41.085Z,96495.34
2022-12-31T23:11:09.551Z,96495.25
2022-12-31T23:13:59.143Z,96511.59
2022-12-31T23:16:45.935Z,96499.78
2022-12-31T23:19:31.609Z,96501.88
2022-12-31T23:22:16.737Z,96501.94
2022-12-31T23:24:43.661Z,96491.59
2022-12-31T23:27:11.203Z,96500.03
2022-12-31T23:29:46.685Z,96502.03
2022-12-31T23:32:18.424Z,96509.06
2022-12-31T23:34:46.980Z,96505.75
2022-12-31T23:37:15.038Z,96506.31
2022-12-31T23:39:42.525Z,96502.19
2022-12-31T23:42:08.900Z,96504.63
2022-12-31T23:44:35.264Z,96504.56
2022-12-31T23:47:01.970Z,96504.06
2022-12-31T23:49:28.304Z,96499.56
2022-12-31T23:51:54.652Z,96500.50
2022-12-31T23:54:21.405Z,96511.38
2022-12-31T23:56:47.760Z,96518.56
2022-12-31T23:59:14.082Z,96524.50
